sensor_id;sensor_type;location;lat;lon;timestamp;temperature;humidity
39103;DHT22;24847;48.218;16.414;2023-05-10T00:03:37;13.00;99.90
39103;DHT22;24847;48.218;16.414;2023-05-10T00:08:40;13.00;99.90
39103;DHT22;24847;48.218;16.414;2023-05-10T00:13:43;12.80;99.90
39103;DHT22;24847;48.218;16.414;2023-05-10T00:18:46;12.70;99.90
39103;DHT22;24847;48.218;16.414;2023-05-10T00:23:49;12.80;99.90
39103;DHT22;24847;48.218;16.414;2023-05-10T00:28:51;12.90;99.90
39103;DHT22;24847;48.218;16.414;2023-05-10T00:33:55;12.60;99.90
39103;DHT22;24847;48.218;16.414;2023-05-10T00:38:58;12.80;99.90
39103;DHT22;24847;48.218;16.414;2023-05-10T00:44:01;12.60;99.90
39103;DHT22;24847;48.218;16.414;2023-05-10T00:49:04;12.50;99.90
39103;DHT22;24847;48.218;16.414;2023-05-10T00:54:07;12.60;99.90
39103;DHT22;24847;48.218;16.414;2023-05-10T00:59:09;12.40;99.90
39103;DHT22;24847;48.218;16.414;2023-05-10T01:04:14;12.00;99.90
39103;DHT22;24847;48.218;16.414;2023-05-10T01:09:16;12.00;99.90
39103;DHT22;24847;48.218;16.414;2023-05-10T01:14:19;11.80;99.90
39103;DHT22;24847;48.218;16.414;2023-05-10T01:19:26;12.00;99.90
39103;DHT22;24847;48.218;16.414;2023-05-10T01:30:40;11.60;99.90
39103;DHT22;24847;48.218;16.414;2023-05-10T01:36:05;11.40;99.90
39103;DHT22;24847;48.218;16.414;2023-05-10T01:41:17;11.50;99.90
39103;DHT22;24847;48.218;16.414;2023-05-10T01:46:27;11.40;99.90
39103;DHT22;24847;48.218;16.414;2023-05-10T01:51:38;11.60;99.90
39103;DHT22;24847;48.218;16.414;2023-05-10T01:56:45;11.40;99.90
39103;DHT22;24847;48.218;16.414;2023-05-10T02:01:51;11.80;99.90
39103;DHT22;24847;48.218;16.414;2023-05-10T02:06:56;11.70;99.90
39103;DHT22;24847;48.218;16.414;2023-05-10T02:12:02;11.60;99.90
39103;DHT22;24847;48.218;16.414;2023-05-10T02:17:07;11.50;99.90
39103;DHT22;24847;48.218;16.414;2023-05-10T02:22:12;11.50;99.90
39103;DHT22;24847;48.218;16.414;2023-05-10T02:27:15;11.40;99.90
39103;DHT22;24847;48.218;16.414;2023-05-10T02:32:19;11.60;99.90
39103;DHT22;24847;48.218;16.414;2023-05-10T02:37:25;11.70;99.90
39103;DHT22;24847;48.218;16.414;2023-05-10T02:42:29;11.50;99.90
39103;DHT22;24847;48.218;16.414;2023-05-10T02:47:33;11.20;99.90
39103;DHT22;24847;48.218;16.414;2023-05-10T02:52:40;11.10;99.90
39103;DHT22;24847;48.218;16.414;2023-05-10T02:57:48;11.00;99.90
39103;DHT22;24847;48.218;16.414;2023-05-10T03:02:53;11.20;99.90
39103;DHT22;24847;48.218;16.414;2023-05-10T03:07:57;11.00;99.90
39103;DHT22;24847;48.218;16.414;2023-05-10T03:13:10;10.90;99.90
39103;DHT22;24847;48.218;16.414;2023-05-10T03:18:21;10.80;99.90
39103;DHT22;24847;48.218;16.414;2023-05-10T03:23:29;10.80;99.90
39103;DHT22;24847;48.218;16.414;2023-05-10T03:28:36;10.70;99.90
39103;DHT22;24847;48.218;16.414;2023-05-10T03:33:46;10.60;99.90
39103;DHT22;24847;48.218;16.414;2023-05-10T03:38:50;10.70;99.90
39103;DHT22;24847;48.218;16.414;2023-05-10T03:43:53;10.80;99.90
39103;DHT22;24847;48.218;16.414;2023-05-10T03:48:55;11.10;99.90
39103;DHT22;24847;48.218;16.414;2023-05-10T03:53:58;11.10;99.90
39103;DHT22;24847;48.218;16.414;2023-05-10T03:59:00;10.90;99.90
39103;DHT22;24847;48.218;16.414;2023-05-10T04:04:07;11.10;99.90
39103;DHT22;24847;48.218;16.414;2023-05-10T04:09:11;10.90;99.90
39103;DHT22;24847;48.218;16.414;2023-05-10T04:14:13;11.00;99.90
39103;DHT22;24847;48.218;16.414;2023-05-10T04:19:15;11.10;99.90
39103;DHT22;24847;48.218;16.414;2023-05-10T04:24:19;11.20;99.90
39103;DHT22;24847;48.218;16.414;2023-05-10T04:29:21;11.20;99.90
39103;DHT22;24847;48.218;16.414;2023-05-10T04:34:23;11.60;99.90
39103;DHT22;24847;48.218;16.414;2023-05-10T04:39:27;12.20;99.90
39103;DHT22;24847;48.218;16.414;2023-05-10T04:44:29;12.50;99.90
39103;DHT22;24847;48.218;16.414;2023-05-10T04:49:32;12.50;99.90
39103;DHT22;24847;48.218;16.414;2023-05-10T04:54:35;13.00;99.90
39103;DHT22;24847;48.218;16.414;2023-05-10T04:59:37;13.10;99.90
39103;DHT22;24847;48.218;16.414;2023-05-10T05:04:39;13.20;99.90
39103;DHT22;24847;48.218;16.414;2023-05-10T05:09:43;12.80;99.90
39103;DHT22;24847;48.218;16.414;2023-05-10T05:14:45;12.90;99.90
39103;DHT22;24847;48.218;16.414;2023-05-10T05:19:47;14.10;99.90
39103;DHT22;24847;48.218;16.414;2023-05-10T05:24:51;14.40;99.90
39103;DHT22;24847;48.218;16.414;2023-05-10T05:29:53;13.90;99.90
39103;DHT22;24847;48.218;16.414;2023-05-10T05:34:55;13.40;99.90
39103;DHT22;24847;48.218;16.414;2023-05-10T05:39:59;13.20;99.90
39103;DHT22;24847;48.218;16.414;2023-05-10T05:45:02;13.40;99.90
39103;DHT22;24847;48.218;16.414;2023-05-10T05:50:06;14.70;99.90
39103;DHT22;24847;48.218;16.414;2023-05-10T05:55:10;15.30;99.90
39103;DHT22;24847;48.218;16.414;2023-05-10T06:00:13;16.00;99.90
39103;DHT22;24847;48.218;16.414;2023-05-10T06:05:16;16.20;99.90
39103;DHT22;24847;48.218;16.414;2023-05-10T06:10:20;16.70;99.90
39103;DHT22;24847;48.218;16.414;2023-05-10T06:15:22;16.80;99.90
39103;DHT22;24847;48.218;16.414;2023-05-10T06:20:24;17.40;99.90
39103;DHT22;24847;48.218;16.414;2023-05-10T06:25:28;17.80;99.90
39103;DHT22;24847;48.218;16.414;2023-05-10T06:30:30;18.10;99.90
39103;DHT22;24847;48.218;16.414;2023-05-10T06:35:33;18.20;99.90
39103;DHT22;24847;48.218;16.414;2023-05-10T06:40:36;18.40;99.90
39103;DHT22;24847;48.218;16.414;2023-05-10T06:45:38;18.60;99.90
39103;DHT22;24847;48.218;16.414;2023-05-10T06:50:41;19.00;99.90
39103;DHT22;24847;48.218;16.414;2023-05-10T06:55:44;19.40;99.90
39103;DHT22;24847;48.218;16.414;2023-05-10T07:00:47;19.80;99.90
39103;DHT22;24847;48.218;16.414;2023-05-10T07:05:49;19.50;99.90
39103;DHT22;24847;48.218;16.414;2023-05-10T07:10:52;18.80;99.90
39103;DHT22;24847;48.218;16.414;2023-05-10T07:15:54;19.10;99.90
39103;DHT22;24847;48.218;16.414;2023-05-10T07:20:57;19.50;99.90
39103;DHT22;24847;48.218;16.414;2023-05-10T07:26:00;20.20;99.90
39103;DHT22;24847;48.218;16.414;2023-05-10T07:31:02;20.00;99.90
39103;DHT22;24847;48.218;16.414;2023-05-10T07:36:05;20.40;99.90
39103;DHT22;24847;48.218;16.414;2023-05-10T07:41:10;20.90;99.90
39103;DHT22;24847;48.218;16.414;2023-05-10T07:46:13;20.10;99.90
39103;DHT22;24847;48.218;16.414;2023-05-10T07:51:15;20.70;99.90
39103;DHT22;24847;48.218;16.414;2023-05-10T07:56:24;20.60;99.90
39103;DHT22;24847;48.218;16.414;2023-05-10T08:01:30;19.20;99.90
39103;DHT22;24847;48.218;16.414;2023-05-10T08:06:33;19.30;99.90
39103;DHT22;24847;48.218;16.414;2023-05-10T08:11:36;19.50;99.90
39103;DHT22;24847;48.218;16.414;2023-05-10T08:16:38;19.70;99.90
39103;DHT22;24847;48.218;16.414;2023-05-10T08:21:40;19.90;99.90
39103;DHT22;24847;48.218;16.414;2023-05-10T08:26:44;19.10;99.90
39103;DHT22;24847;48.218;16.414;2023-05-10T08:31:46;18.30;99.90
39103;DHT22;24847;48.218;16.414;2023-05-10T08:36:49;18.60;99.90
39103;DHT22;24847;48.218;16.414;2023-05-10T08:41:54;18.20;99.90
39103;DHT22;24847;48.218;16.414;2023-05-10T08:47:04;18.20;99.90
39103;DHT22;24847;48.218;16.414;2023-05-10T08:52:07;18.30;99.90
39103;DHT22;24847;48.218;16.414;2023-05-10T08:57:11;19.50;99.90
39103;DHT22;24847;48.218;16.414;2023-05-10T09:02:14;19.30;99.90
39103;DHT22;24847;48.218;16.414;2023-05-10T09:07:16;19.00;99.90
39103;DHT22;24847;48.218;16.414;2023-05-10T09:12:20;19.00;99.90
39103;DHT22;24847;48.218;16.414;2023-05-10T09:17:23;19.80;99.90
39103;DHT22;24847;48.218;16.414;2023-05-10T09:22:25;19.80;99.90
39103;DHT22;24847;48.218;16.414;2023-05-10T09:27:30;20.10;99.90
39103;DHT22;24847;48.218;16.414;2023-05-10T09:32:39;19.20;99.90
39103;DHT22;24847;48.218;16.414;2023-05-10T09:37:43;19.20;99.90
39103;DHT22;24847;48.218;16.414;2023-05-10T09:42:53;18.30;99.90
39103;DHT22;24847;48.218;16.414;2023-05-10T09:47:56;18.50;99.90
39103;DHT22;24847;48.218;16.414;2023-05-10T09:53:00;18.80;99.90
39103;DHT22;24847;48.218;16.414;2023-05-10T09:58:05;19.10;99.90
39103;DHT22;24847;48.218;16.414;2023-05-10T10:03:14;18.90;99.90
39103;DHT22;24847;48.218;16.414;2023-05-10T10:08:18;19.00;99.90
39103;DHT22;24847;48.218;16.414;2023-05-10T10:13:22;19.20;99.90
39103;DHT22;24847;48.218;16.414;2023-05-10T10:18:24;19.50;99.90
39103;DHT22;24847;48.218;16.414;2023-05-10T10:23:28;19.30;99.90
39103;DHT22;24847;48.218;16.414;2023-05-10T10:28:38;19.20;99.90
39103;DHT22;24847;48.218;16.414;2023-05-10T10:33:59;18.90;99.90
39103;DHT22;24847;48.218;16.414;2023-05-10T10:39:09;18.70;99.90
39103;DHT22;24847;48.218;16.414;2023-05-10T10:44:36;18.50;99.90
39103;DHT22;24847;48.218;16.414;2023-05-10T10:49:45;18.80;99.90
39103;DHT22;24847;48.218;16.414;2023-05-10T10:54:52;18.80;99.90
39103;DHT22;24847;48.218;16.414;2023-05-10T11:00:19;18.20;99.90
39103;DHT22;24847;48.218;16.414;2023-05-10T11:05:37;18.50;99.90
39103;DHT22;24847;48.218;16.414;2023-05-10T11:16:13;18.20;99.90
39103;DHT22;24847;48.218;16.414;2023-05-10T11:21:16;18.30;99.90
39103;DHT22;24847;48.218;16.414;2023-05-10T11:26:18;18.50;99.90
39103;DHT22;24847;48.218;16.414;2023-05-10T11:31:25;18.40;99.90
39103;DHT22;24847;48.218;16.414;2023-05-10T11:36:28;18.50;99.90
39103;DHT22;24847;48.218;16.414;2023-05-10T11:41:33;18.50;99.90
39103;DHT22;24847;48.218;16.414;2023-05-10T11:46:37;18.00;99.90
39103;DHT22;24847;48.218;16.414;2023-05-10T11:51:39;18.00;99.90
39103;DHT22;24847;48.218;16.414;2023-05-10T11:56:43;17.90;99.90
39103;DHT22;24847;48.218;16.414;2023-05-10T12:01:48;18.10;99.90
39103;DHT22;24847;48.218;16.414;2023-05-10T12:06:50;18.00;99.90
39103;DHT22;24847;48.218;16.414;2023-05-10T12:11:55;17.90;99.90
39103;DHT22;24847;48.218;16.414;2023-05-10T12:16:59;18.20;99.90
39103;DHT22;24847;48.218;16.414;2023-05-10T12:22:04;17.80;99.90
39103;DHT22;24847;48.218;16.414;2023-05-10T12:27:08;17.90;99.90
39103;DHT22;24847;48.218;16.414;2023-05-10T12:32:12;17.90;99.90
39103;DHT22;24847;48.218;16.414;2023-05-10T12:37:15;17.90;99.90
39103;DHT22;24847;48.218;16.414;2023-05-10T12:42:17;17.80;99.90
39103;DHT22;24847;48.218;16.414;2023-05-10T12:47:20;17.90;99.90
39103;DHT22;24847;48.218;16.414;2023-05-10T12:52:24;17.60;99.90
39103;DHT22;24847;48.218;16.414;2023-05-10T12:57:26;17.50;99.90
39103;DHT22;24847;48.218;16.414;2023-05-10T13:02:30;17.40;99.90
39103;DHT22;24847;48.218;16.414;2023-05-10T13:07:32;17.20;99.90
39103;DHT22;24847;48.218;16.414;2023-05-10T13:12:34;17.10;99.90
39103;DHT22;24847;48.218;16.414;2023-05-10T13:17:38;17.10;99.90
39103;DHT22;24847;48.218;16.414;2023-05-10T13:22:41;17.00;99.90
39103;DHT22;24847;48.218;16.414;2023-05-10T13:27:44;17.30;99.90
39103;DHT22;24847;48.218;16.414;2023-05-10T13:32:47;17.40;99.90
39103;DHT22;24847;48.218;16.414;2023-05-10T13:37:50;17.50;99.90
39103;DHT22;24847;48.218;16.414;2023-05-10T13:42:54;17.20;99.90
39103;DHT22;24847;48.218;16.414;2023-05-10T13:47:57;17.10;99.90
39103;DHT22;24847;48.218;16.414;2023-05-10T13:52:59;17.30;99.90
39103;DHT22;24847;48.218;16.414;2023-05-10T13:58:07;17.60;99.90
39103;DHT22;24847;48.218;16.414;2023-05-10T14:03:11;17.50;99.90
39103;DHT22;24847;48.218;16.414;2023-05-10T14:08:13;17.00;99.90
39103;DHT22;24847;48.218;16.414;2023-05-10T14:13:15;17.10;99.90
39103;DHT22;24847;48.218;16.414;2023-05-10T14:18:19;17.30;99.90
39103;DHT22;24847;48.218;16.414;2023-05-10T14:23:22;17.40;99.90
39103;DHT22;24847;48.218;16.414;2023-05-10T14:28:25;17.40;99.90
39103;DHT22;24847;48.218;16.414;2023-05-10T14:33:30;17.50;99.90
39103;DHT22;24847;48.218;16.414;2023-05-10T14:38:33;17.30;99.90
39103;DHT22;24847;48.218;16.414;2023-05-10T14:43:36;17.80;99.90
39103;DHT22;24847;48.218;16.414;2023-05-10T14:48:40;17.70;99.90
39103;DHT22;24847;48.218;16.414;2023-05-10T14:53:42;17.80;99.90
39103;DHT22;24847;48.218;16.414;2023-05-10T14:58:45;17.70;99.90
39103;DHT22;24847;48.218;16.414;2023-05-10T15:03:48;17.60;99.90
39103;DHT22;24847;48.218;16.414;2023-05-10T15:08:51;17.20;99.90
39103;DHT22;24847;48.218;16.414;2023-05-10T15:13:53;17.10;99.90
39103;DHT22;24847;48.218;16.414;2023-05-10T15:18:57;17.00;99.90
39103;DHT22;24847;48.218;16.414;2023-05-10T15:23:59;17.00;99.90
39103;DHT22;24847;48.218;16.414;2023-05-10T15:29:01;17.40;99.90
39103;DHT22;24847;48.218;16.414;2023-05-10T15:34:05;17.30;99.90
39103;DHT22;24847;48.218;16.414;2023-05-10T15:39:07;17.30;99.90
39103;DHT22;24847;48.218;16.414;2023-05-10T15:44:10;17.10;99.90
39103;DHT22;24847;48.218;16.414;2023-05-10T15:49:13;17.00;99.90
39103;DHT22;24847;48.218;16.414;2023-05-10T15:54:15;16.90;99.90
39103;DHT22;24847;48.218;16.414;2023-05-10T15:59:18;16.80;99.90
39103;DHT22;24847;48.218;16.414;2023-05-10T16:04:21;16.80;99.90
39103;DHT22;24847;48.218;16.414;2023-05-10T16:09:24;16.70;99.90
39103;DHT22;24847;48.218;16.414;2023-05-10T16:14:26;17.00;99.90
39103;DHT22;24847;48.218;16.414;2023-05-10T16:19:30;17.10;99.90
39103;DHT22;24847;48.218;16.414;2023-05-10T16:24:32;16.80;99.90
39103;DHT22;24847;48.218;16.414;2023-05-10T16:29:34;16.90;99.90
39103;DHT22;24847;48.218;16.414;2023-05-10T16:34:38;16.90;99.90
39103;DHT22;24847;48.218;16.414;2023-05-10T16:39:40;16.80;99.90
39103;DHT22;24847;48.218;16.414;2023-05-10T16:44:42;17.00;99.90
39103;DHT22;24847;48.218;16.414;2023-05-10T16:49:46;16.70;99.90
39103;DHT22;24847;48.218;16.414;2023-05-10T16:54:48;16.60;99.90
39103;DHT22;24847;48.218;16.414;2023-05-10T16:59:51;16.70;99.90
39103;DHT22;24847;48.218;16.414;2023-05-10T17:04:55;16.80;99.90
39103;DHT22;24847;48.218;16.414;2023-05-10T17:09:58;16.70;99.90
39103;DHT22;24847;48.218;16.414;2023-05-10T17:15:00;16.60;99.90
39103;DHT22;24847;48.218;16.414;2023-05-10T17:20:04;16.70;99.90
39103;DHT22;24847;48.218;16.414;2023-05-10T17:25:08;16.70;99.90
39103;DHT22;24847;48.218;16.414;2023-05-10T17:30:11;16.70;99.90
39103;DHT22;24847;48.218;16.414;2023-05-10T17:35:15;16.60;99.90
39103;DHT22;24847;48.218;16.414;2023-05-10T17:40:18;16.50;99.90
39103;DHT22;24847;48.218;16.414;2023-05-10T17:45:20;16.70;99.90
39103;DHT22;24847;48.218;16.414;2023-05-10T17:50:24;16.40;99.90
39103;DHT22;24847;48.218;16.414;2023-05-10T17:55:26;16.10;99.90
39103;DHT22;24847;48.218;16.414;2023-05-10T18:00:30;16.00;99.90
39103;DHT22;24847;48.218;16.414;2023-05-10T18:05:36;15.90;99.90
39103;DHT22;24847;48.218;16.414;2023-05-10T18:10:39;16.00;99.90
39103;DHT22;24847;48.218;16.414;2023-05-10T18:15:42;15.90;99.90
39103;DHT22;24847;48.218;16.414;2023-05-10T18:20:45;15.90;99.90
39103;DHT22;24847;48.218;16.414;2023-05-10T18:25:49;15.90;99.90
39103;DHT22;24847;48.218;16.414;2023-05-10T18:30:52;15.90;99.90
39103;DHT22;24847;48.218;16.414;2023-05-10T18:35:56;15.80;99.90
39103;DHT22;24847;48.218;16.414;2023-05-10T18:40:58;15.70;99.90
39103;DHT22;24847;48.218;16.414;2023-05-10T18:46:00;15.60;99.90
39103;DHT22;24847;48.218;16.414;2023-05-10T18:51:04;15.60;99.90
39103;DHT22;24847;48.218;16.414;2023-05-10T18:56:07;15.60;99.90
39103;DHT22;24847;48.218;16.414;2023-05-10T19:01:10;15.60;99.90
39103;DHT22;24847;48.218;16.414;2023-05-10T19:06:14;15.50;99.90
39103;DHT22;24847;48.218;16.414;2023-05-10T19:11:17;15.60;99.90
39103;DHT22;24847;48.218;16.414;2023-05-10T19:16:21;15.60;99.90
39103;DHT22;24847;48.218;16.414;2023-05-10T19:21:25;15.60;99.90
39103;DHT22;24847;48.218;16.414;2023-05-10T19:26:28;15.50;99.90
39103;DHT22;24847;48.218;16.414;2023-05-10T19:31:31;15.40;99.90
39103;DHT22;24847;48.218;16.414;2023-05-10T19:36:35;15.60;99.90
39103;DHT22;24847;48.218;16.414;2023-05-10T19:41:38;15.50;99.90
39103;DHT22;24847;48.218;16.414;2023-05-10T19:46:40;15.40;99.90
39103;DHT22;24847;48.218;16.414;2023-05-10T19:51:44;15.40;99.90
39103;DHT22;24847;48.218;16.414;2023-05-10T19:56:47;15.40;99.90
39103;DHT22;24847;48.218;16.414;2023-05-10T20:01:49;15.40;99.90
39103;DHT22;24847;48.218;16.414;2023-05-10T20:06:59;15.30;99.90
39103;DHT22;24847;48.218;16.414;2023-05-10T20:12:01;15.30;99.90
39103;DHT22;24847;48.218;16.414;2023-05-10T20:17:04;15.20;99.90
39103;DHT22;24847;48.218;16.414;2023-05-10T20:22:08;15.20;99.90
39103;DHT22;24847;48.218;16.414;2023-05-10T20:27:10;15.10;99.90
39103;DHT22;24847;48.218;16.414;2023-05-10T20:32:12;15.10;99.90
39103;DHT22;24847;48.218;16.414;2023-05-10T20:37:16;15.10;99.90
39103;DHT22;24847;48.218;16.414;2023-05-10T20:42:18;15.00;99.90
39103;DHT22;24847;48.218;16.414;2023-05-10T20:47:21;15.00;99.90
39103;DHT22;24847;48.218;16.414;2023-05-10T20:52:25;15.10;99.90
39103;DHT22;24847;48.218;16.414;2023-05-10T20:57:27;15.10;99.90
39103;DHT22;24847;48.218;16.414;2023-05-10T21:02:29;15.10;99.90
39103;DHT22;24847;48.218;16.414;2023-05-10T21:07:33;15.10;99.90
39103;DHT22;24847;48.218;16.414;2023-05-10T21:12:35;15.20;99.90
39103;DHT22;24847;48.218;16.414;2023-05-10T21:17:38;15.20;99.90
39103;DHT22;24847;48.218;16.414;2023-05-10T21:22:41;15.10;99.90
39103;DHT22;24847;48.218;16.414;2023-05-10T21:27:44;15.00;99.90
39103;DHT22;24847;48.218;16.414;2023-05-10T21:32:47;15.00;99.90
39103;DHT22;24847;48.218;16.414;2023-05-10T21:37:52;15.00;99.90
39103;DHT22;24847;48.218;16.414;2023-05-10T21:42:54;15.00;99.90
39103;DHT22;24847;48.218;16.414;2023-05-10T21:47:56;14.90;99.90
39103;DHT22;24847;48.218;16.414;2023-05-10T21:53:00;14.90;99.90
39103;DHT22;24847;48.218;16.414;2023-05-10T21:58:03;14.90;99.90
39103;DHT22;24847;48.218;16.414;2023-05-10T22:03:05;14.80;99.90
39103;DHT22;24847;48.218;16.414;2023-05-10T22:08:09;14.70;99.90
39103;DHT22;24847;48.218;16.414;2023-05-10T22:13:11;14.60;99.90
39103;DHT22;24847;48.218;16.414;2023-05-10T22:18:14;14.30;99.90
39103;DHT22;24847;48.218;16.414;2023-05-10T22:23:17;14.30;99.90
39103;DHT22;24847;48.218;16.414;2023-05-10T22:28:19;14.30;99.90
39103;DHT22;24847;48.218;16.414;2023-05-10T22:33:21;14.20;99.90
39103;DHT22;24847;48.218;16.414;2023-05-10T22:38:25;14.20;99.90
39103;DHT22;24847;48.218;16.414;2023-05-10T22:43:27;14.00;99.90
39103;DHT22;24847;48.218;16.414;2023-05-10T22:48:31;14.00;99.90
39103;DHT22;24847;48.218;16.414;2023-05-10T22:53:36;14.00;99.90
39103;DHT22;24847;48.218;16.414;2023-05-10T22:58:39;13.80;99.90
39103;DHT22;24847;48.218;16.414;2023-05-10T23:03:41;13.80;99.90
39103;DHT22;24847;48.218;16.414;2023-05-10T23:08:45;13.80;99.90
39103;DHT22;24847;48.218;16.414;2023-05-10T23:13:47;13.90;99.90
39103;DHT22;24847;48.218;16.414;2023-05-10T23:18:50;13.90;99.90
39103;DHT22;24847;48.218;16.414;2023-05-10T23:23:55;13.90;99.90
39103;DHT22;24847;48.218;16.414;2023-05-10T23:28:58;13.80;99.90
39103;DHT22;24847;48.218;16.414;2023-05-10T23:34:01;13.70;99.90
39103;DHT22;24847;48.218;16.414;2023-05-10T23:39:05;13.50;99.90
39103;DHT22;24847;48.218;16.414;2023-05-10T23:44:07;13.70;99.90
39103;DHT22;24847;48.218;16.414;2023-05-10T23:49:09;13.60;99.90
39103;DHT22;24847;48.218;16.414;2023-05-10T23:54:13;13.60;99.90
39103;DHT22;24847;48.218;16.414;2023-05-10T23:59:15;13.70;99.90
